Time;durP1;ratioP1;P1;durP2;ratioP2;P2;SDS_P1;SDS_P2;PMS_P1;PMS_P2;Temp;Humidity;BMP_temperature;BMP_pressure;BME280_temperature;BME280_humidity;BME280_pressure;Samples;Min_cycle;Max_cycle;Signal;HPM_P1;HPM_P2
2023/10/29 00:01:14;;;;;;;31.90;15.80;;;;;;;8.81;99.72;99546.23;673482;1275;138933;-80
2023/10/29 00:16:18;;;;;;;14.50;8.20;;;;;;;8.79;99.43;99543.45;675823;1262;139072;-81
2023/10/29 00:31:24;;;;;;;11.70;7.50;;;;;;;8.58;99.45;99533.65;677387;1260;139597;-82
2023/10/29 00:46:32;;;;;;;14.50;8.10;;;;;;;8.25;100.00;99545.55;674110;1260;139162;-82
2023/10/29 01:01:36;;;;;;;67.60;25.00;;;;;;;8.28;100.00;99540.89;678134;1265;138922;-80
2023/10/29 01:16:39;;;;;;;28.50;12.00;;;;;;;8.16;100.00;99539.18;677691;1264;138602;-82
2023/10/29 01:31:42;;;;;;;27.60;13.60;;;;;;;8.15;100.00;99555.17;675777;1265;138820;-81
2023/10/29 01:46:45;;;;;;;25.30;13.50;;;;;;;8.10;100.00;99551.43;674894;1265;139478;-81
2023/10/29 02:01:50;;;;;;;25.20;12.30;;;;;;;8.01;100.00;99540.74;671308;1276;138965;-81
2023/10/29 02:16:53;;;;;;;19.80;11.00;;;;;;;7.90;100.00;99549.49;676701;1266;138672;-82
2023/10/29 02:31:57;;;;;;;16.30;10.00;;;;;;;7.81;100.00;99555.39;670285;1265;139000;-80
2023/10/29 02:47:00;;;;;;;23.20;13.00;;;;;;;7.50;100.00;99549.28;675444;1271;139042;-82
2023/10/29 03:02:03;;;;;;;18.80;10.20;;;;;;;7.55;100.00;99546.35;674799;1265;138955;-82
2023/10/29 03:17:06;;;;;;;18.60;10.00;;;;;;;7.53;100.00;99536.58;673718;1275;138692;-81
2023/10/29 03:32:09;;;;;;;13.80;9.00;;;;;;;7.52;100.00;99545.68;676940;1262;139347;-81
2023/10/29 03:47:12;;;;;;;15.40;9.20;;;;;;;7.35;100.00;99560.85;674465;1263;139778;-81
2023/10/29 04:02:16;;;;;;;15.20;8.90;;;;;;;7.33;100.00;99550.44;674734;1263;138668;-81
2023/10/29 04:17:19;;;;;;;18.40;9.50;;;;;;;7.43;100.00;99557.74;669059;1264;138902;-82
2023/10/29 04:32:22;;;;;;;30.00;10.70;;;;;;;7.41;100.00;99566.99;676178;1262;138848;-81
2023/10/29 04:47:26;;;;;;;20.50;9.10;;;;;;;7.36;100.00;99567.95;672461;1264;139322;-82
2023/10/29 05:02:29;;;;;;;24.40;10.20;;;;;;;7.17;100.00;99567.14;673062;1264;138721;-80
2023/10/29 05:17:33;;;;;;;23.20;9.90;;;;;;;7.05;100.00;99563.80;671658;1264;139085;-80
2023/10/29 05:32:36;;;;;;;20.60;9.10;;;;;;;7.02;100.00;99570.62;677118;1263;138719;-81
2023/10/29 05:47:39;;;;;;;35.30;19.30;;;;;;;7.11;100.00;99583.48;676411;1259;139842;-81
2023/10/29 06:02:43;;;;;;;28.50;12.40;;;;;;;7.04;100.00;99593.09;678820;1261;138740;-81
2023/10/29 06:17:48;;;;;;;32.60;14.10;;;;;;;6.99;100.00;99579.27;676389;1264;138942;-80
2023/10/29 06:32:51;;;;;;;350.20;117.10;;;;;;;6.95;100.00;99553.17;677393;1262;139124;-82
2023/10/29 06:47:55;;;;;;;117.60;47.30;;;;;;;6.74;100.00;99571.04;676289;1260;139548;-81
2023/10/29 07:02:59;;;;;;;42.50;19.10;;;;;;;6.86;100.00;99576.63;671558;1261;139165;-80
2023/10/29 07:27:31;;;;;;;47.70;24.30;;;;;;;6.99;100.00;99554.89;650903;1298;545659;-81
2023/10/29 07:42:34;;;;;;;68.80;38.00;;;;;;;6.82;100.00;99541.34;672183;1267;138437;-81
2023/10/29 07:57:40;;;;;;;88.60;38.10;;;;;;;6.61;100.00;99532.73;674577;1266;138541;-81
2023/10/29 08:12:44;;;;;;;119.60;44.10;;;;;;;6.59;100.00;99533.01;671543;1262;138703;-80
2023/10/29 08:27:47;;;;;;;59.10;21.70;;;;;;;6.79;100.00;99524.78;673495;1264;139380;-82
2023/10/29 08:42:51;;;;;;;129.70;49.00;;;;;;;6.97;100.00;99529.45;671982;1277;139749;-81
2023/10/29 08:57:54;;;;;;;555.20;227.90;;;;;;;7.40;100.00;99519.58;671417;1266;138938;-82
2023/10/29 09:12:59;;;;;;;125.10;55.20;;;;;;;7.38;100.00;99504.27;674540;1266;138994;-81
2023/10/29 09:28:05;;;;;;;74.80;34.00;;;;;;;7.52;100.00;99491.77;672015;1266;139183;-81
2023/10/29 09:43:12;;;;;;;91.10;40.00;;;;;;;7.56;100.00;99481.50;674277;1266;138582;-79
2023/10/29 09:58:18;;;;;;;133.50;41.40;;;;;;;7.86;100.00;99462.77;670721;1263;138794;-80
2023/10/29 10:25:19;;;;;;;134.40;42.70;;;;;;;8.54;100.00;99453.38;655499;1298;544980;-81
2023/10/29 10:40:26;;;;;;;112.70;39.50;;;;;;;8.78;100.00;99433.04;667661;1280;139358;-81
2023/10/29 10:55:30;;;;;;;57.00;25.40;;;;;;;9.11;100.00;99408.30;674544;1274;139418;-80
2023/10/29 11:10:39;;;;;;;205.80;75.80;;;;;;;9.42;100.00;99385.77;668560;1285;138857;-80
2023/10/29 11:25:43;;;;;;;99.70;37.70;;;;;;;9.73;100.00;99362.48;675190;1267;139279;-80
2023/10/29 11:40:49;;;;;;;49.60;28.20;;;;;;;10.11;100.00;99341.95;675001;1268;139309;-80
2023/10/29 11:55:57;;;;;;;73.40;32.60;;;;;;;10.27;100.00;99325.31;668014;1267;138810;-80
2023/10/29 12:11:01;;;;;;;100.10;44.70;;;;;;;10.73;100.00;99318.93;672088;1269;138827;-79
2023/10/29 12:26:06;;;;;;;60.10;39.50;;;;;;;10.84;100.00;99305.73;672809;1263;139615;-79
2023/10/29 12:41:14;;;;;;;54.30;26.80;;;;;;;11.07;100.00;99299.23;671196;1269;139291;-80
2023/10/29 12:56:17;;;;;;;121.60;48.30;;;;;;;11.24;100.00;99300.33;676413;1267;139494;-81
2023/10/29 13:11:21;;;;;;;91.60;39.10;;;;;;;11.33;100.00;99270.48;670546;1274;139530;-81
2023/10/29 13:26:24;;;;;;;58.80;29.80;;;;;;;11.22;100.00;99243.06;675489;1268;142106;-81
2023/10/29 13:41:28;;;;;;;79.30;35.60;;;;;;;11.34;100.00;99232.32;673732;1268;139076;-80
2023/10/29 13:56:32;;;;;;;88.80;39.30;;;;;;;11.50;100.00;99198.63;673440;1267;140546;-80
2023/10/29 14:11:36;;;;;;;112.20;50.20;;;;;;;11.61;100.00;99135.02;673749;1268;139929;-81
2023/10/29 14:26:40;;;;;;;88.20;40.70;;;;;;;11.88;100.00;99089.23;672203;1263;140240;-81
2023/10/29 14:41:43;;;;;;;134.60;51.70;;;;;;;12.06;100.00;99069.99;669695;1268;140318;-80
2023/10/29 14:56:46;;;;;;;104.40;50.30;;;;;;;12.35;100.00;99069.73;669905;1278;140089;-80
2023/10/29 15:11:55;;;;;;;71.90;36.10;;;;;;;12.59;100.00;99099.62;668685;1269;140287;-80
2023/10/29 15:27:01;;;;;;;71.60;34.70;;;;;;;12.98;100.00;99127.89;669977;1269;139568;-80
2023/10/29 15:42:07;;;;;;;86.10;42.40;;;;;;;13.00;100.00;99139.00;667129;1270;139828;-81
2023/10/29 15:57:10;;;;;;;44.00;22.00;;;;;;;13.25;100.00;99135.10;674945;1272;139649;-79
2023/10/29 16:12:14;;;;;;;38.20;21.60;;;;;;;13.85;100.00;99129.66;671033;1269;140074;-80
2023/10/29 16:27:17;;;;;;;41.90;22.80;;;;;;;14.19;100.00;99140.20;672729;1268;139501;-80
2023/10/29 16:42:21;;;;;;;36.90;18.80;;;;;;;14.40;100.00;99097.71;671216;1268;140136;-79
2023/10/29 16:57:25;;;;;;;26.40;16.20;;;;;;;14.80;100.00;99092.64;672586;1270;139449;-80
2023/10/29 17:12:29;;;;;;;288.20;126.30;;;;;;;14.81;100.00;99083.54;668675;1277;139892;-81
2023/10/29 17:27:32;;;;;;;30.90;17.50;;;;;;;15.12;100.00;99068.59;672179;1271;140223;-81
2023/10/29 17:42:36;;;;;;;29.00;15.50;;;;;;;15.13;100.00;99063.30;667002;1269;139923;-80
2023/10/29 17:57:39;;;;;;;22.60;12.30;;;;;;;15.21;100.00;99074.85;671500;1276;139443;-81
2023/10/29 18:12:43;;;;;;;14.50;9.00;;;;;;;15.38;100.00;99079.25;671717;1267;139837;-81
2023/10/29 18:27:46;;;;;;;18.60;11.10;;;;;;;15.42;100.00;99066.88;673883;1267;138817;-81
2023/10/29 18:42:50;;;;;;;20.50;8.80;;;;;;;15.54;100.00;99071.07;670228;1269;139387;-81
2023/10/29 18:57:53;;;;;;;12.20;7.70;;;;;;;15.51;100.00;99067.89;673220;1277;139153;-81
2023/10/29 19:12:57;;;;;;;14.50;8.50;;;;;;;15.52;100.00;99065.61;679370;1263;139084;-82
2023/10/29 19:28:01;;;;;;;16.50;10.40;;;;;;;15.43;100.00;99045.48;678928;1267;139559;-81
2023/10/29 19:43:04;;;;;;;13.20;7.90;;;;;;;15.47;100.00;99058.65;676754;1266;139413;-81
2023/10/29 19:58:08;;;;;;;10.60;6.20;;;;;;;15.43;100.00;99040.48;674786;1268;139404;-81
2023/10/29 20:13:12;;;;;;;11.00;6.10;;;;;;;15.43;100.00;99053.05;676183;1264;139491;-82
2023/10/29 20:40:26;;;;;;;19.20;8.40;;;;;;;15.28;100.00;99043.02;657798;1289;545589;-82
2023/10/29 20:55:30;;;;;;;16.10;6.70;;;;;;;15.06;100.00;99037.48;673907;1273;139464;-81
2023/10/29 21:10:36;;;;;;;10.00;6.10;;;;;;;15.08;100.00;99039.83;669841;1269;138991;-80
2023/10/29 21:25:40;;;;;;;12.50;5.80;;;;;;;15.16;100.00;99043.98;671403;1266;138911;-82
2023/10/29 21:40:44;;;;;;;11.20;6.60;;;;;;;15.08;100.00;99051.67;674120;1262;139226;-80
2023/10/29 21:55:48;;;;;;;10.70;6.40;;;;;;;14.98;100.00;99048.10;670098;1265;139282;-81
2023/10/29 22:10:58;;;;;;;15.30;6.80;;;;;;;14.95;100.00;99043.38;675607;1261;139832;-81
2023/10/29 22:26:03;;;;;;;14.20;6.40;;;;;;;14.94;100.00;99062.02;679888;1267;139145;-81
2023/10/29 22:41:14;;;;;;;15.90;10.50;;;;;;;15.01;100.00;99074.87;681109;1264;139373;-80
2023/10/29 22:56:18;;;;;;;10.60;6.40;;;;;;;15.05;100.00;99083.45;677397;1266;139383;-80
2023/10/29 23:11:21;;;;;;;6.60;4.30;;;;;;;15.25;100.00;99099.47;673970;1259;139315;-78
2023/10/29 23:26:25;;;;;;;10.40;6.10;;;;;;;15.20;100.00;99069.49;678682;1265;139771;-80
2023/10/29 23:41:28;;;;;;;10.50;5.50;;;;;;;15.13;100.00;99049.77;681235;1263;139340;-80
2023/10/29 23:56:32;;;;;;;11.70;6.40;;;;;;;15.07;100.00;99042.56;681458;1263;138939;-80
